KISM/ISM METAR and TAF weather

Enter ICAO airport designator
Station Type Date Time Source
KISM METAR 2019/12/13 16:56 UTC NOAA

KISM 131656Z 25004KT 4SM -RA BR BKN030 BKN037 OVC080 22/22 A2999 RMK AO2 LTG DSNT N RAE1557B50 SLP155 T02170217 PNO $


Station Type Date Time Source
KISM Decoded METAR 2019/12/13 16:56 UTC NOAA

Orlando, Kissimmee Municipal Airport, FL, United States (KISM) 28-17-23N 081-26-14W
Dec 13, 2019 - 11:56 AM EST / 2019.12.13 1656 UTC
Wind: from the WSW (250 degrees) at 5 MPH (4 KT):0
Visibility: 4 mile(s):0
Sky conditions: overcast
Weather: light rain; mist; Lightning observed
Temperature: 71.1 F (21.7 C)
Dew Point: 71.1 F (21.7 C)
Relative Humidity: 100%
Pressure (altimeter): 29.99 in. Hg (1015 hPa)
ob: KISM 131656Z 25004KT 4SM -RA BR BKN030 BKN037 OVC080 22/22 A2999 RMK AO2 LTG DSNT N RAE1557B50 SLP155 T02170217 PNO
cycle: 17

Station Type Date Time Source
KISM TAF 2019/12/13 17:39 UTC NOAA

TAF
AMD KISM 131636Z 1317/1412 16007KT P6SM VCSH SCT020 BKN050
FM132100 21009KT P6SM VCSH BKN035
FM140000 20005KT P6SM SCT030 BKN250
FM141100 25009KT P6SM VCSH SCT030 BKN050

Example: see airport list